トロンハイム の空港の天気 - METARとTAF

Trondheim / Vaernes ( ENVA / TRD ) - ノルウェー ヌール・トロンデラーグ県、Stjordal
飛行場実況気象(Metar)
観測時間01/20 18:20 CET (01/20 17:20 UTC)
風向・風速西北西 8m/s
視程5000m
天気現象弱い霧雨
少しの雲 雲底高度 180m
全天の8割程度の雲 雲底高度 270m
全天を覆う雲 雲底高度 370m
気温6℃
湿度93%
気圧1022hPa
METARENVA 201720Z 30015KT 5000 -DZ FEW006 BKN009 OVC012 06/05 Q1022 TEMPO 3000 DZRA RMK WIND 670FT 30027KT
過去の天気等 Google飛行場航空写真 Wunderground天気予報

過去48時間のMETAR

飛行場予報(TAF)
発表時間: -
20日19時 CET から 確率 30% で
風向・風速西北西 4m/s
20日19時 CET ~ 21日19時 CET に一時的に
視程2,000m
天気現象霧雨雨 もや
全天の8割程度の雲 雲底高度 150m
21日1時 CET ~ 21日3時 CET に徐々に
風向・風速不定 3m/s
21日5時 CET ~ 21日8時 CET に徐々に
風向・風速西 13m/s
TAF ENVA 2018/2118 29017KT 9000 -RA SCT006 BKN015
PROB30 2018/2024 30007KT
TEMPO 2018/2118 2000 DZRA BR BKN005
BECMG 2100/2102 VRB05KT
BECMG 2104/2107 27025KT